Time;durP1;ratioP1;P1;durP2;ratioP2;P2;SDS_P1;SDS_P2;PMS_P1;PMS_P2;Temp;Humidity;BMP_temperature;BMP_pressure;BME280_temperature;BME280_humidity;BME280_pressure;Samples;Min_cycle;Max_cycle;Signal;HPM_P1;HPM_P2
2022/02/03 00:01:38;;;;;;;14.60;5.93;;;10.50;94.40;;;;;;6153472;29;20122;-84
2022/02/03 00:04:50;;;;;;;9.45;5.63;;;10.50;94.30;;;;;;6154832;28;20050;-84
2022/02/03 00:08:00;;;;;;;10.77;6.35;;;10.50;94.20;;;;;;6132270;28;20553;-83
2022/02/03 00:11:21;;;;;;;9.75;5.38;;;10.40;94.20;;;;;;6131223;28;20051;-83
2022/02/03 00:24:34;;;;;;;8.05;4.75;;;10.40;94.40;;;;;;6130448;28;20044;-83
2022/02/03 00:27:54;;;;;;;8.50;4.78;;;10.40;94.30;;;;;;6130205;28;20055;-83
2022/02/03 00:31:06;;;;;;;9.30;4.32;;;10.50;94.30;;;;;;6130697;28;20639;-83
2022/02/03 00:34:16;;;;;;;8.38;4.65;;;10.50;94.20;;;;;;6131359;29;20052;-83
2022/02/03 00:37:33;;;;;;;13.48;5.15;;;10.50;94.10;;;;;;6130273;28;20094;-84
2022/02/03 00:50:44;;;;;;;9.60;5.03;;;10.20;94.20;;;;;;6130961;28;20055;-83
2022/02/03 00:53:47;;;;;;;8.88;4.75;;;10.20;94.40;;;;;;6131258;29;20050;-83
2022/02/03 00:56:54;;;;;;;10.65;5.75;;;10.10;94.40;;;;;;6130368;28;20637;-83
2022/02/03 01:00:01;;;;;;;13.20;5.95;;;10.10;94.50;;;;;;6130328;28;20054;-84
2022/02/03 01:03:09;;;;;;;12.93;5.68;;;10.10;94.60;;;;;;6130715;28;20046;-83
2022/02/03 01:06:14;;;;;;;11.48;5.93;;;10.10;94.60;;;;;;6130589;29;20051;-84
2022/02/03 01:09:22;;;;;;;12.50;6.35;;;10.10;94.90;;;;;;6130681;28;20110;-83
2022/02/03 01:12:32;;;;;;;15.23;5.40;;;10.10;94.50;;;;;;6132953;28;20047;-82
2022/02/03 01:15:40;;;;;;;9.00;5.72;;;10.10;94.50;;;;;;6130463;28;20127;-84
2022/02/03 01:36:53;;;;;;;12.07;6.20;;;10.20;94.20;;;;;;6130222;28;20039;-82
2022/02/03 01:45:37;;;;;;;12.52;6.32;;;10.30;94.10;;;;;;6113363;29;20433;-84
2022/02/03 01:48:52;;;;;;;12.18;6.22;;;10.30;94.10;;;;;;6130213;28;20462;-81
2022/02/03 01:52:00;;;;;;;11.18;6.18;;;10.30;93.90;;;;;;6140138;28;20114;-81
2022/02/03 01:55:03;;;;;;;;;;;10.20;93.80;;;;;;6154812;28;20538;-81
2022/02/03 01:58:12;;;;;;;11.70;7.20;;;10.30;93.80;;;;;;6154636;28;20009;-84
2022/02/03 02:01:27;;;;;;;10.68;6.43;;;10.20;93.80;;;;;;6153880;28;20043;-84
2022/02/03 02:04:58;;;;;;;10.80;5.47;;;10.20;93.80;;;;;;6154504;28;20194;-83
2022/02/03 02:08:08;;;;;;;10.40;5.55;;;10.30;93.90;;;;;;6151351;28;20050;-85
2022/02/03 02:11:37;;;;;;;12.43;5.95;;;10.30;93.90;;;;;;6156087;28;20047;-84
2022/02/03 02:15:19;;;;;;;9.93;5.70;;;10.40;93.70;;;;;;6155617;28;20079;-86
2022/02/03 02:38:57;;;;;;;16.30;5.15;;;10.60;93.20;;;;;;6104987;29;20048;-84
2022/02/03 02:45:33;;;;;;;9.80;5.78;;;10.60;93.10;;;;;;6156909;28;20082;-82
2022/02/03 02:49:08;;;;;;;9.35;5.45;;;10.50;93.20;;;;;;6174732;28;20099;-83
2022/02/03 02:52:17;;;;;;;12.55;5.97;;;10.60;93.10;;;;;;6164832;28;20051;-84
2022/02/03 02:55:32;;;;;;;10.02;6.05;;;10.50;93.20;;;;;;6156522;28;20039;-85
2022/02/03 02:58:59;;;;;;;9.18;5.45;;;10.60;93.10;;;;;;6157598;28;20093;-86
2022/02/03 03:02:33;;;;;;;10.65;5.80;;;10.60;93.10;;;;;;6157320;29;20059;-86
2022/02/03 03:29:26;;;;;;;10.57;5.05;;;10.60;92.90;;;;;;6158860;28;20039;-86
2022/02/03 03:32:49;;;;;;;10.52;4.50;;;10.60;92.90;;;;;;6158292;28;20458;-85
2022/02/03 03:35:54;;;;;;;8.50;4.70;;;10.60;92.90;;;;;;6158585;28;20066;-85
2022/02/03 03:38:58;;;;;;;7.95;4.57;;;10.50;92.90;;;;;;6160260;28;20047;-84
2022/02/03 03:42:03;;;;;;;14.15;7.90;;;10.50;92.90;;;;;;6159492;29;20111;-85
2022/02/03 03:45:09;;;;;;;10.13;5.85;;;10.50;93.00;;;;;;6159510;28;20095;-84
2022/02/03 03:48:18;;;;;;;10.82;5.05;;;10.60;92.90;;;;;;6158433;28;20053;-85
2022/02/03 03:51:28;;;;;;;11.60;4.70;;;10.50;92.90;;;;;;6158308;28;20067;-84
2022/02/03 03:54:36;;;;;;;11.32;5.47;;;10.50;93.00;;;;;;6158901;28;20051;-85
2022/02/03 03:57:57;;;;;;;;;;;10.50;93.00;;;;;;6159645;29;20077;-85
2022/02/03 04:29:15;;;;;;;13.98;6.57;;;10.30;93.30;;;;;;6157794;28;20043;-84
2022/02/03 04:32:53;;;;;;;11.60;6.45;;;10.30;93.30;;;;;;6156955;28;20058;-84
2022/02/03 04:40:00;;;;;;;11.00;5.97;;;10.10;93.40;;;;;;6156936;28;20051;-84
2022/02/03 04:57:57;;;;;;;11.82;6.43;;;10.00;93.80;;;;;;6157347;28;20059;-84
2022/02/03 05:04:55;;;;;;;12.90;6.13;;;9.90;93.80;;;;;;6156386;28;20051;-84
2022/02/03 05:08:26;;;;;;;11.85;7.10;;;10.00;93.90;;;;;;6157100;28;20414;-84
2022/02/03 05:11:48;;;;;;;16.58;6.57;;;9.80;93.90;;;;;;6157029;28;20051;-84
2022/02/03 05:18:50;;;;;;;11.85;6.70;;;9.80;94.10;;;;;;6156828;29;20055;-84
2022/02/03 05:22:46;;;;;;;19.38;7.28;;;9.80;94.20;;;;;;6156362;29;20130;-83
2022/02/03 05:26:13;;;;;;;14.95;6.60;;;9.90;94.10;;;;;;6155397;29;20572;-84
2022/02/03 05:33:27;;;;;;;12.88;6.18;;;10.00;94.00;;;;;;6155854;28;20043;-83
2022/02/03 05:44:13;;;;;;;14.95;7.03;;;9.80;94.10;;;;;;6104869;29;20058;-84
2022/02/03 05:47:34;;;;;;;14.38;6.95;;;9.80;94.10;;;;;;6108855;29;20142;-85
2022/02/03 05:51:02;;;;;;;17.38;7.50;;;9.90;94.30;;;;;;6156633;28;20054;-84
2022/02/03 06:01:16;;;;;;;15.52;7.07;;;9.90;94.30;;;;;;6156514;28;20039;-84
2022/02/03 06:04:33;;;;;;;17.27;7.68;;;9.80;94.20;;;;;;6157755;28;20051;-85
2022/02/03 06:07:50;;;;;;;18.27;7.60;;;9.80;94.30;;;;;;6155416;28;20513;-84
2022/02/03 06:14:15;;;;;;;16.17;7.45;;;9.80;94.30;;;;;;6155637;29;20051;-86
2022/02/03 06:17:30;;;;;;;16.17;7.20;;;9.70;94.30;;;;;;6156593;28;20054;-84
2022/02/03 06:20:43;;;;;;;18.40;7.43;;;9.70;94.40;;;;;;6156107;28;20058;-85
2022/02/03 06:23:55;;;;;;;16.60;7.82;;;9.70;94.50;;;;;;6157847;28;20800;-83
2022/02/03 06:30:20;;;;;;;13.95;7.53;;;9.60;94.40;;;;;;6158699;29;20457;-84
2022/02/03 06:33:23;;;;;;;16.25;7.88;;;9.50;94.40;;;;;;6165403;28;20047;-84
2022/02/03 06:36:25;;;;;;;14.93;7.28;;;9.40;94.50;;;;;;6173139;28;20066;-82
2022/02/03 06:39:30;;;;;;;17.65;8.73;;;9.40;94.60;;;;;;6168774;28;20535;-84
2022/02/03 06:42:32;;;;;;;19.30;8.52;;;9.50;94.70;;;;;;6158908;28;20118;-84
2022/02/03 06:45:39;;;;;;;22.60;9.75;;;9.50;94.60;;;;;;6157299;28;20573;-84
2022/02/03 06:48:48;;;;;;;20.77;8.68;;;9.60;94.60;;;;;;6157422;28;20074;-84
2022/02/03 06:51:57;;;;;;;24.70;10.45;;;9.70;94.50;;;;;;6158285;28;20047;-85
2022/02/03 06:55:08;;;;;;;23.55;9.13;;;9.70;94.30;;;;;;6157132;28;20051;-84
2022/02/03 06:58:15;;;;;;;27.95;10.93;;;9.70;94.30;;;;;;6158009;29;20504;-84
2022/02/03 07:01:21;;;;;;;24.80;11.15;;;9.60;94.30;;;;;;6157047;28;20047;-84
2022/02/03 07:04:26;;;;;;;31.05;11.40;;;9.60;94.50;;;;;;6157283;28;20059;-83
2022/02/03 07:07:27;;;;;;;38.88;15.82;;;9.70;94.40;;;;;;6156917;28;20536;-83
2022/02/03 07:10:31;;;;;;;33.75;12.60;;;9.70;94.50;;;;;;6155751;28;20046;-84
2022/02/03 07:13:34;;;;;;;33.65;14.68;;;9.80;94.30;;;;;;6154740;29;20055;-86
2022/02/03 07:16:45;;;;;;;34.72;14.27;;;9.80;94.20;;;;;;6154385;28;20051;-85
2022/02/03 07:19:49;;;;;;;28.05;13.38;;;9.90;94.10;;;;;;6153507;28;20043;-85
2022/02/03 07:22:51;;;;;;;27.17;10.85;;;9.90;93.90;;;;;;6152971;28;20391;-85
2022/02/03 07:25:54;;;;;;;33.90;12.98;;;9.90;94.00;;;;;;6154185;29;20043;-84
2022/02/03 07:28:55;;;;;;;37.20;15.30;;;9.80;93.90;;;;;;6155496;28;20110;-87
2022/02/03 07:31:57;;;;;;;35.92;13.32;;;9.90;93.90;;;;;;6154691;28;20047;-85
2022/02/03 07:34:59;;;;;;;31.50;14.02;;;9.90;93.90;;;;;;6154591;28;20099;-87
2022/02/03 07:38:02;;;;;;;26.20;11.70;;;9.80;93.80;;;;;;6156340;29;20069;-82
2022/02/03 07:41:05;;;;;;;31.17;13.45;;;10.00;94.00;;;;;;6155261;28;20043;-87
2022/02/03 07:44:08;;;;;;;31.17;11.32;;;10.10;93.90;;;;;;6154745;28;20130;-85
2022/02/03 07:47:10;;;;;;;30.83;13.05;;;10.10;93.70;;;;;;6155331;28;20039;-85
2022/02/03 07:50:14;;;;;;;27.33;11.65;;;10.10;93.60;;;;;;6154494;29;20051;-87
2022/02/03 07:53:16;;;;;;;27.67;12.48;;;10.00;93.70;;;;;;6155382;28;20507;-84
2022/02/03 07:56:19;;;;;;;32.28;12.25;;;10.20;93.70;;;;;;6154902;28;20058;-83
2022/02/03 07:59:21;;;;;;;29.35;10.73;;;10.30;93.40;;;;;;6159975;28;20110;-86
2022/02/03 08:02:23;;;;;;;26.63;11.15;;;10.40;93.50;;;;;;6160014;29;20592;-86
2022/02/03 08:05:26;;;;;;;30.85;11.70;;;10.60;93.30;;;;;;6159333;28;20617;-86
2022/02/03 08:08:33;;;;;;;18.98;9.45;;;10.70;93.20;;;;;;6159090;28;20523;-84
2022/02/03 08:11:40;;;;;;;22.30;10.52;;;10.80;92.70;;;;;;6159694;28;20482;-86
2022/02/03 08:14:46;;;;;;;33.63;16.25;;;10.80;92.70;;;;;;6158575;28;20051;-83
2022/02/03 08:17:48;;;;;;;19.50;9.68;;;10.90;92.80;;;;;;6160568;29;20051;-84
2022/02/03 08:20:54;;;;;;;56.33;22.52;;;10.90;92.50;;;;;;6158619;28;20047;-86
2022/02/03 08:30:37;;;;;;;18.98;10.32;;;11.20;92.30;;;;;;6158557;28;20071;-87
2022/02/03 08:33:41;;;;;;;15.10;8.40;;;11.30;92.30;;;;;;6159336;29;20066;-85
2022/02/03 08:36:43;;;;;;;15.68;8.73;;;11.40;92.20;;;;;;6158738;28;20047;-85
2022/02/03 08:39:53;;;;;;;12.30;7.85;;;11.50;91.90;;;;;;6158557;28;20075;-87
2022/02/03 08:42:56;;;;;;;17.85;8.55;;;11.60;91.80;;;;;;6159065;28;20047;-85
2022/02/03 08:46:00;;;;;;;13.15;7.70;;;11.60;91.40;;;;;;6158975;29;20053;-86
2022/02/03 08:49:05;;;;;;;16.48;7.25;;;11.60;91.20;;;;;;6158167;28;20109;-83
2022/02/03 08:52:15;;;;;;;11.35;6.90;;;11.60;91.10;;;;;;6159404;28;20051;-86
2022/02/03 08:55:25;;;;;;;13.70;6.32;;;11.60;91.10;;;;;;6158588;28;20039;-86
2022/02/03 09:35:54;;;;;;;7.20;3.90;;;12.10;89.30;;;;;;6155483;28;20047;-84
2022/02/03 09:39:09;;;;;;;5.60;3.60;;;12.10;89.30;;;;;;6155986;28;20126;-86
2022/02/03 09:52:38;;;;;;;6.28;3.35;;;12.50;88.00;;;;;;6138728;28;20502;-85
2022/02/03 09:55:58;;;;;;;4.45;3.03;;;12.60;87.30;;;;;;6132381;29;20166;-85
2022/02/03 09:59:08;;;;;;;6.15;3.05;;;12.80;87.50;;;;;;6135996;28;20513;-85
2022/02/03 10:02:14;;;;;;;5.20;3.45;;;13.00;85.90;;;;;;6133652;29;20059;-86
2022/02/03 10:05:32;;;;;;;3.97;2.70;;;13.10;85.70;;;;;;6132799;29;20055;-85
2022/02/03 10:08:34;;;;;;;5.53;4.20;;;13.10;85.30;;;;;;6145691;28;20086;-85
2022/02/03 10:11:37;;;;;;;4.75;2.70;;;13.10;85.00;;;;;;6158520;28;20054;-86
2022/02/03 10:14:42;;;;;;;6.05;2.15;;;13.20;84.40;;;;;;6139516;28;20054;-84
2022/02/03 10:17:48;;;;;;;4.28;2.40;;;13.20;84.10;;;;;;6136301;29;20059;-82
2022/02/03 10:20:51;;;;;;;3.10;2.15;;;13.30;84.10;;;;;;6157110;28;20067;-84
2022/02/03 10:23:55;;;;;;;4.78;2.75;;;13.30;83.10;;;;;;6140355;28;20111;-86
2022/02/03 10:26:57;;;;;;;4.47;2.60;;;13.30;83.30;;;;;;6148465;29;20047;-79
2022/02/03 10:30:19;;;;;;;3.75;2.45;;;13.40;83.70;;;;;;6152508;28;20051;-86
2022/02/03 10:33:31;;;;;;;5.15;2.03;;;13.70;83.60;;;;;;6136242;29;20138;-86
2022/02/03 10:36:48;;;;;;;2.17;1.60;;;13.90;82.30;;;;;;6137258;29;20052;-86
2022/02/03 10:43:35;;;;;;;4.05;2.20;;;14.40;81.90;;;;;;6135759;29;20044;-85
2022/02/03 10:50:14;;;;;;;3.75;1.80;;;14.50;79.50;;;;;;6133809;29;20114;-84
2022/02/03 10:53:39;;;;;;;4.10;1.50;;;14.50;78.90;;;;;;6144783;28;20505;-87
2022/02/03 10:57:19;;;;;;;9.07;3.17;;;14.50;78.80;;;;;;6134218;29;20057;-85
2022/02/03 11:03:56;;;;;;;3.20;1.55;;;14.30;78.20;;;;;;6130852;29;20039;-86
2022/02/03 11:07:04;;;;;;;4.85;1.92;;;14.20;78.00;;;;;;6133237;29;20055;-86
2022/02/03 11:10:22;;;;;;;3.58;2.03;;;14.20;78.70;;;;;;6133311;29;20406;-85
2022/02/03 11:13:29;;;;;;;4.47;1.27;;;14.30;78.50;;;;;;6133004;29;20059;-84
2022/02/03 11:16:36;;;;;;;2.05;1.30;;;14.30;78.50;;;;;;6132112;29;20150;-82
2022/02/03 11:19:38;;;;;;;4.68;1.45;;;14.30;78.30;;;;;;6132132;29;20542;-85
2022/02/03 11:22:50;;;;;;;3.92;1.23;;;14.40;78.60;;;;;;6140035;29;20522;-84
2022/02/03 11:26:05;;;;;;;3.03;1.75;;;14.40;78.30;;;;;;6156396;28;20102;-84
2022/02/03 11:29:57;;;;;;;3.63;1.90;;;14.50;77.90;;;;;;6155868;28;20047;-86
2022/02/03 11:36:23;;;;;;;3.45;1.45;;;14.50;77.40;;;;;;6157343;28;20097;-83
2022/02/03 11:50:02;;;;;;;1.58;0.90;;;14.40;75.80;;;;;;6159702;28;20043;-83
2022/02/03 11:53:34;;;;;;;2.70;1.05;;;14.30;76.10;;;;;;6149912;29;20066;-82
2022/02/03 12:07:25;;;;;;;2.42;1.00;;;14.40;74.30;;;;;;6127734;28;20452;-84
2022/02/03 12:10:49;;;;;;;1.58;0.95;;;14.30;74.60;;;;;;6156810;28;20524;-82
2022/02/03 12:20:48;;;;;;;2.20;0.60;;;14.30;73.80;;;;;;6141727;29;20050;-84
2022/02/03 12:23:57;;;;;;;1.30;0.60;;;14.40;74.30;;;;;;6149175;28;20072;-85
2022/02/03 12:27:06;;;;;;;6.53;1.00;;;14.60;74.20;;;;;;6137139;29;20135;-83
2022/02/03 12:30:24;;;;;;;2.47;0.93;;;14.80;72.50;;;;;;6138198;29;20059;-83
2022/02/03 12:37:04;;;;;;;1.10;0.52;;;14.90;71.50;;;;;;6136641;29;20055;-85
2022/02/03 12:40:18;;;;;;;1.38;0.77;;;14.80;71.40;;;;;;6137410;29;20569;-83
2022/02/03 12:43:32;;;;;;;1.95;0.70;;;14.60;71.90;;;;;;6131832;29;20054;-84
2022/02/03 12:46:34;;;;;;;0.98;0.65;;;14.60;72.30;;;;;;6133196;29;20056;-86
2022/02/03 12:49:41;;;;;;;1.60;0.82;;;14.50;71.60;;;;;;6132879;29;20158;-85
2022/02/03 12:52:45;;;;;;;1.27;0.65;;;14.40;72.30;;;;;;6141804;29;20429;-84
2022/02/03 12:55:50;;;;;;;2.22;0.90;;;14.30;72.60;;;;;;6158159;28;20058;-83
2022/02/03 12:58:58;;;;;;;1.30;0.60;;;14.20;73.20;;;;;;6159696;28;20195;-86
2022/02/03 13:02:10;;;;;;;1.20;0.70;;;14.20;73.50;;;;;;6148180;28;20076;-85
2022/02/03 13:05:13;;;;;;;1.58;0.77;;;14.20;72.90;;;;;;6138171;28;20113;-85
2022/02/03 13:08:15;;;;;;;2.08;0.60;;;14.20;73.20;;;;;;6135200;29;20047;-83
2022/02/03 13:11:22;;;;;;;1.42;0.50;;;14.10;73.80;;;;;;6135393;29;20091;-85
2022/02/03 13:14:28;;;;;;;2.03;0.60;;;14.10;73.10;;;;;;6136805;29;20104;-85
2022/02/03 13:17:34;;;;;;;1.83;0.82;;;14.10;73.80;;;;;;6136201;29;20134;-84
2022/02/03 13:20:47;;;;;;;1.45;0.60;;;14.20;74.00;;;;;;6140823;28;20058;-86
2022/02/03 13:23:52;;;;;;;2.15;0.77;;;14.20;73.80;;;;;;6150521;28;20099;-86
2022/02/03 13:26:56;;;;;;;3.58;0.93;;;14.20;73.20;;;;;;6158603;28;20101;-86
2022/02/03 13:30:03;;;;;;;0.57;0.30;;;14.00;73.10;;;;;;6160576;28;20047;-87
2022/02/03 13:33:07;;;;;;;1.52;0.70;;;14.00;73.00;;;;;;6157598;28;20082;-84
2022/02/03 13:36:19;;;;;;;0.90;0.52;;;13.90;73.50;;;;;;6157971;28;20051;-85
2022/02/03 13:39:26;;;;;;;1.80;0.52;;;13.90;73.20;;;;;;6155976;28;20039;-83
2022/02/03 13:42:31;;;;;;;1.20;0.60;;;13.90;72.80;;;;;;6156115;28;20586;-84
2022/02/03 13:45:33;;;;;;;1.83;1.35;;;13.70;72.40;;;;;;6156203;28;20148;-85
2022/02/03 13:48:37;;;;;;;1.55;0.70;;;13.70;72.90;;;;;;6155544;28;20576;-81
2022/02/03 13:51:42;;;;;;;0.75;0.60;;;13.70;74.20;;;;;;6147854;28;20048;-83
2022/02/03 14:18:34;;;;;;;3.67;1.83;;;13.20;75.40;;;;;;6133851;29;20044;-84
2022/02/03 14:21:40;;;;;;;4.28;2.38;;;13.00;76.00;;;;;;6142262;29;20066;-84
2022/02/03 14:28:02;;;;;;;2.67;1.33;;;13.00;76.30;;;;;;6157254;28;20520;-83
2022/02/03 14:31:06;;;;;;;2.08;0.93;;;12.90;76.00;;;;;;6157152;28;20126;-82
2022/02/03 14:34:14;;;;;;;1.58;0.70;;;12.90;76.30;;;;;;6157962;29;20067;-84
2022/02/03 14:37:25;;;;;;;2.92;1.20;;;12.90;75.90;;;;;;6156246;28;20047;-87
2022/02/03 14:40:39;;;;;;;2.88;1.02;;;12.80;76.40;;;;;;6155736;28;20130;-85
2022/02/03 14:43:42;;;;;;;2.97;1.33;;;12.90;76.50;;;;;;6156272;28;20047;-83
2022/02/03 14:46:44;;;;;;;2.75;1.63;;;13.00;76.60;;;;;;6155015;28;20190;-84
2022/02/03 14:49:46;;;;;;;3.85;1.70;;;13.00;76.80;;;;;;6154568;29;20658;-84
2022/02/03 14:52:59;;;;;;;3.03;1.63;;;13.00;76.40;;;;;;6140791;29;20043;-85
2022/02/03 14:59:22;;;;;;;2.95;1.20;;;12.80;76.70;;;;;;6154816;28;20047;-84
2022/02/03 15:02:24;;;;;;;3.00;1.13;;;12.70;77.30;;;;;;6157780;28;20047;-84
2022/02/03 15:05:28;;;;;;;1.95;1.00;;;12.60;77.20;;;;;;6148533;28;20064;-85
2022/02/03 15:08:46;;;;;;;5.75;1.08;;;12.50;76.90;;;;;;6132492;28;20052;-83
2022/02/03 15:12:01;;;;;;;2.72;0.70;;;12.40;76.90;;;;;;6132488;28;20480;-84
2022/02/03 15:15:03;;;;;;;1.52;0.70;;;12.40;77.10;;;;;;6133191;28;20488;-84
2022/02/03 15:18:05;;;;;;;38.75;19.98;;;12.30;76.80;;;;;;6132955;29;20069;-85
2022/02/03 15:21:07;;;;;;;4.78;3.53;;;12.20;77.40;;;;;;6142889;28;20075;-85
2022/02/03 15:24:10;;;;;;;2.35;1.60;;;12.10;77.60;;;;;;6148399;29;20055;-81
2022/02/03 15:27:15;;;;;;;31.25;13.73;;;12.00;77.40;;;;;;6155375;28;20043;-83
2022/02/03 15:30:17;;;;;;;6.20;2.10;;;11.90;77.70;;;;;;6155300;28;20430;-82
2022/02/03 15:33:25;;;;;;;5.18;2.50;;;11.90;77.70;;;;;;6154684;28;20062;-84
2022/02/03 15:36:30;;;;;;;15.45;7.75;;;11.80;77.80;;;;;;6154506;28;20047;-84
2022/02/03 15:39:39;;;;;;;5.38;2.00;;;11.70;78.30;;;;;;6154577;28;20051;-84
2022/02/03 15:42:50;;;;;;;8.95;3.85;;;11.70;78.40;;;;;;6156674;28;20139;-82
2022/02/03 15:45:56;;;;;;;5.20;3.08;;;11.60;78.30;;;;;;6157072;28;20055;-86
2022/02/03 15:49:07;;;;;;;4.43;1.92;;;11.60;78.40;;;;;;6155737;28;20058;-82
2022/02/03 16:02:42;;;;;;;4.28;3.25;;;11.40;79.80;;;;;;6154771;28;20047;-85
2022/02/03 16:19:00;;;;;;;2.70;1.13;;;11.30;79.90;;;;;;6125073;28;20042;-84
2022/02/03 16:22:09;;;;;;;5.03;1.88;;;11.20;80.00;;;;;;6148604;28;20134;-84
2022/02/03 16:25:21;;;;;;;27.35;13.02;;;11.20;80.10;;;;;;6134841;29;20111;-86
2022/02/03 16:42:48;;;;;;;5.00;3.88;;;11.00;81.30;;;;;;6135088;29;20047;-84
2022/02/03 16:52:25;;;;;;;3.30;1.30;;;10.90;81.50;;;;;;6129573;28;20043;-83
2022/02/03 16:55:33;;;;;;;1.30;0.68;;;11.00;81.60;;;;;;6155397;28;20040;-83
2022/02/03 16:58:36;;;;;;;1.83;0.85;;;11.00;81.30;;;;;;6157291;28;20047;-84
2022/02/03 17:01:37;;;;;;;2.53;1.60;;;11.10;81.30;;;;;;6157469;28;20047;-84
2022/02/03 17:04:41;;;;;;;4.75;3.10;;;11.10;81.40;;;;;;6157355;28;20065;-83
2022/02/03 17:07:43;;;;;;;7.93;4.22;;;11.20;81.50;;;;;;6150617;28;20087;-84
2022/02/03 17:10:44;;;;;;;9.80;4.78;;;11.20;81.40;;;;;;6155903;28;20051;-85
2022/02/03 17:13:47;;;;;;;3.72;2.20;;;11.20;81.50;;;;;;6156666;28;20418;-83
2022/02/03 17:16:48;;;;;;;4.15;2.83;;;11.30;81.70;;;;;;6156584;28;20070;-83
2022/02/03 17:19:52;;;;;;;5.00;2.28;;;11.20;81.70;;;;;;6156562;28;20043;-86
2022/02/03 17:22:54;;;;;;;1.90;1.33;;;11.20;81.80;;;;;;6149741;28;20039;-85
2022/02/03 17:26:07;;;;;;;4.32;1.58;;;11.40;85.40;;;;;;6158764;28;20051;-84
2022/02/03 17:29:14;;;;;;;6.72;1.42;;;11.50;83.30;;;;;;6158105;28;20051;-86
2022/02/03 17:32:24;;;;;;;3.10;1.80;;;11.40;82.40;;;;;;6159017;28;20047;-84
2022/02/03 18:09:02;;;;;;;4.90;1.80;;;10.90;83.00;;;;;;6154092;28;20119;-87
2022/02/03 18:35:31;;;;;;;4.80;2.03;;;10.70;83.50;;;;;;6145713;28;20039;-86
2022/02/03 18:52:27;;;;;;;2.90;1.67;;;10.90;83.30;;;;;;6152442;28;20040;-85
2022/02/03 18:55:35;;;;;;;3.03;1.43;;;10.80;83.30;;;;;;6156027;28;20525;-83
2022/02/03 18:58:45;;;;;;;5.63;1.60;;;10.80;83.50;;;;;;6155938;28;20073;-83
2022/02/03 19:02:08;;;;;;;4.22;1.65;;;10.70;83.70;;;;;;6156450;29;20047;-84
2022/02/03 19:12:52;;;;;;;3.88;1.98;;;10.40;84.70;;;;;;6133322;29;20044;-87
2022/02/03 20:02:36;;;;;;;6.45;3.63;;;10.50;85.60;;;;;;6133785;29;20405;-84
2022/02/03 20:05:46;;;;;;;5.68;3.55;;;10.50;85.70;;;;;;6146787;29;20047;-87
2022/02/03 20:08:53;;;;;;;8.07;4.22;;;10.60;85.90;;;;;;6159496;28;20055;-86
2022/02/03 20:11:55;;;;;;;6.75;3.42;;;10.60;85.80;;;;;;6155720;28;20129;-84
2022/02/03 20:14:58;;;;;;;8.02;2.88;;;10.60;85.70;;;;;;6157863;28;20043;-84
2022/02/03 20:18:01;;;;;;;4.40;2.97;;;10.60;85.80;;;;;;6159966;28;20066;-84
2022/02/03 20:21:04;;;;;;;6.13;3.72;;;10.50;85.90;;;;;;6154126;28;20071;-85
2022/02/03 20:24:07;;;;;;;6.43;3.53;;;10.40;86.00;;;;;;6145378;28;20426;-84
2022/02/03 20:27:09;;;;;;;6.30;3.40;;;10.40;86.10;;;;;;6136860;29;20047;-85
2022/02/03 20:30:12;;;;;;;6.57;3.58;;;10.30;86.10;;;;;;6143549;29;20061;-84
2022/02/03 20:33:15;;;;;;;10.93;5.68;;;10.20;86.50;;;;;;6144024;28;20050;-84
2022/02/03 20:36:18;;;;;;;10.15;4.53;;;10.20;86.60;;;;;;6140326;28;20506;-85
2022/02/03 20:39:20;;;;;;;8.90;4.38;;;10.10;86.80;;;;;;6135476;29;20134;-84
2022/02/03 20:42:22;;;;;;;12.82;4.03;;;10.00;87.00;;;;;;6135574;29;20500;-85
2022/02/03 20:45:24;;;;;;;4.55;2.92;;;9.80;87.30;;;;;;6134488;29;20062;-84
2022/02/03 20:48:29;;;;;;;7.60;4.05;;;9.80;87.50;;;;;;6135600;29;20084;-85
2022/02/03 20:51:32;;;;;;;8.00;3.33;;;9.70;87.70;;;;;;6142498;29;20074;-85
2022/02/03 20:54:35;;;;;;;7.35;3.15;;;9.70;87.90;;;;;;6152671;28;20055;-85
2022/02/03 20:57:37;;;;;;;6.65;3.25;;;9.70;87.90;;;;;;6160805;28;20413;-85
2022/02/03 21:00:43;;;;;;;5.93;3.35;;;9.60;88.00;;;;;;6160027;28;20043;-85
2022/02/03 21:03:47;;;;;;;5.88;3.13;;;9.60;87.90;;;;;;6158693;28;20577;-85
2022/02/03 21:06:50;;;;;;;4.00;2.28;;;9.60;88.00;;;;;;6159439;28;20054;-84
2022/02/03 21:09:52;;;;;;;7.60;3.30;;;9.50;88.10;;;;;;6152754;28;20047;-84
2022/02/03 21:12:55;;;;;;;6.40;3.53;;;9.50;88.30;;;;;;6158152;28;20054;-85
2022/02/03 21:15:58;;;;;;;6.78;3.38;;;9.50;88.50;;;;;;6161932;28;20063;-84
2022/02/03 21:19:01;;;;;;;7.82;3.53;;;9.50;88.70;;;;;;6161644;28;20059;-86
2022/02/03 21:22:04;;;;;;;9.10;4.80;;;9.50;88.80;;;;;;6151780;29;20044;-85
2022/02/03 21:25:16;;;;;;;7.50;4.80;;;9.40;88.80;;;;;;6155685;29;20356;-85
2022/02/03 21:28:24;;;;;;;12.18;3.58;;;9.30;88.90;;;;;;6159514;28;20052;-85
2022/02/03 21:31:26;;;;;;;8.48;4.30;;;9.30;89.40;;;;;;6157439;28;20514;-84
2022/02/03 21:34:28;;;;;;;7.30;4.00;;;9.30;89.40;;;;;;6156971;28;20047;-83
2022/02/03 21:37:31;;;;;;;8.80;3.75;;;9.30;89.50;;;;;;6157274;28;20051;-85
2022/02/03 21:40:33;;;;;;;7.93;4.18;;;9.30;89.50;;;;;;6161129;28;20062;-82
2022/02/03 21:43:35;;;;;;;19.05;4.55;;;9.30;89.60;;;;;;6162284;28;20456;-86
2022/02/03 21:46:37;;;;;;;7.22;3.42;;;9.30;89.50;;;;;;6157837;28;20053;-88
2022/02/03 21:49:38;;;;;;;6.47;3.53;;;9.40;89.30;;;;;;6157946;29;20527;-84
2022/02/03 21:52:47;;;;;;;8.60;3.78;;;9.40;89.10;;;;;;6143044;28;20039;-85
2022/02/03 21:55:49;;;;;;;;;;;9.50;88.90;;;;;;6162330;28;20138;-85
2022/02/03 21:58:51;;;;;;;4.03;2.33;;;9.50;89.10;;;;;;6161797;28;19930;-84
2022/02/03 22:01:53;;;;;;;7.15;3.80;;;9.60;88.50;;;;;;6160599;28;20186;-86
2022/02/03 22:04:56;;;;;;;5.15;3.38;;;9.50;88.30;;;;;;6161514;28;20099;-85
2022/02/03 22:08:00;;;;;;;8.13;3.30;;;9.50;88.40;;;;;;6161021;28;20047;-84
2022/02/03 22:11:02;;;;;;;6.10;3.13;;;9.50;88.50;;;;;;6154610;28;20053;-84
2022/02/03 22:14:04;;;;;;;5.78;3.72;;;9.60;88.60;;;;;;6139766;29;20530;-86
2022/02/03 22:17:06;;;;;;;6.68;3.00;;;9.60;88.60;;;;;;6132752;29;20048;-87
2022/02/03 22:20:17;;;;;;;5.55;2.70;;;9.60;88.30;;;;;;6134968;29;20626;-82
2022/02/03 22:23:31;;;;;;;5.88;2.63;;;9.60;88.20;;;;;;6149349;28;20046;-86
2022/02/03 22:49:48;;;;;;;3.88;2.50;;;10.00;84.20;;;;;;6157361;28;20053;-86
2022/02/03 22:52:50;;;;;;;2.85;2.00;;;10.00;83.60;;;;;;6150720;28;20052;-86
2022/02/03 22:55:53;;;;;;;5.38;2.50;;;10.00;83.30;;;;;;6159469;28;20058;-86
2022/02/03 22:59:19;;;;;;;3.38;2.08;;;10.00;82.60;;;;;;6158852;28;20051;-85
2022/02/03 23:02:22;;;;;;;2.95;1.73;;;10.00;82.70;;;;;;6158432;28;20051;-85
2022/02/03 23:05:23;;;;;;;6.60;3.47;;;10.00;82.30;;;;;;6158584;28;20054;-86
2022/02/03 23:08:31;;;;;;;4.80;1.45;;;10.00;82.30;;;;;;6158506;28;20047;-84
2022/02/03 23:11:50;;;;;;;;;;;10.00;82.60;;;;;;6158672;28;20051;-85
2022/02/03 23:15:25;;;;;;;5.05;1.90;;;10.10;82.60;;;;;;6156797;28;19982;-84
2022/02/03 23:18:30;;;;;;;13.10;3.50;;;10.10;81.90;;;;;;6156096;29;20055;-84
2022/02/03 23:21:47;;;;;;;2.88;1.73;;;10.10;81.90;;;;;;6156580;29;20059;-85
2022/02/03 23:24:51;;;;;;;4.00;1.98;;;10.00;82.00;;;;;;6152468;28;20063;-83
2022/02/03 23:28:09;;;;;;;4.18;2.08;;;10.00;81.90;;;;;;6160697;28;20047;-83
2022/02/03 23:31:10;;;;;;;4.65;2.10;;;10.00;82.10;;;;;;6163550;28;20062;-83
2022/02/03 23:34:13;;;;;;;4.72;2.25;;;10.00;82.30;;;;;;6164162;28;20111;-84
2022/02/03 23:37:14;;;;;;;5.80;2.10;;;10.00;82.40;;;;;;6160428;28;20059;-84
2022/02/03 23:40:21;;;;;;;3.25;2.00;;;10.00;82.50;;;;;;6165323;28;20108;-86
2022/02/03 23:43:58;;;;;;;3.60;1.90;;;9.90;82.50;;;;;;6163589;28;20421;-84
